createdAt,value
2023-01-11T00:02:03.485Z,101563.19
2023-01-11T00:04:30.847Z,101557.19
2023-01-11T00:06:58.208Z,101536.50
2023-01-11T00:09:25.252Z,101547.72
2023-01-11T00:11:52.310Z,101542.50
2023-01-11T00:14:19.361Z,101544.22
2023-01-11T00:16:46.514Z,101543.38
2023-01-11T00:19:13.805Z,101553.75
2023-01-11T00:21:40.805Z,101564.94
2023-01-11T00:24:07.838Z,101552.03
2023-01-11T00:26:34.838Z,101555.47
2023-01-11T00:29:02.013Z,101546.00
2023-01-11T00:31:29.217Z,101538.22
2023-01-11T00:33:57.227Z,101541.69
2023-01-11T00:36:24.213Z,101541.69
2023-01-11T00:38:55.545Z,101544.28
2023-01-11T00:41:42.675Z,101538.22
2023-01-11T00:44:30.155Z,101534.75
2023-01-11T00:47:16.853Z,101541.63
2023-01-11T00:49:45.055Z,101541.63
2023-01-11T00:52:12.090Z,101550.25
2023-01-11T00:54:40.317Z,101539.84
2023-01-11T00:57:08.342Z,101557.16
2023-01-11T00:59:36.876Z,101538.19
2023-01-11T01:02:04.545Z,101551.16
2023-01-11T01:04:32.183Z,101544.22
2023-01-11T01:06:59.299Z,101535.63
2023-01-11T01:09:26.772Z,101542.50
2023-01-11T01:11:53.788Z,101540.75
2023-01-11T01:14:26.827Z,101550.22
2023-01-11T01:16:58.659Z,101542.47
2023-01-11T01:19:27.947Z,101540.78
2023-01-11T01:21:56.378Z,101533.88
2023-01-11T01:24:24.713Z,101532.13
2023-01-11T01:26:51.774Z,101544.16
2023-01-11T01:29:18.991Z,101535.56
2023-01-11T01:31:46.158Z,101536.44
2023-01-11T01:34:13.841Z,101532.91
2023-01-11T01:36:41.092Z,101532.84
2023-01-11T01:39:08.709Z,101539.78
2023-01-11T01:41:36.045Z,101530.38
2023-01-11T01:44:06.423Z,101552.75
2023-01-11T01:46:34.480Z,101526.91
2023-01-11T01:49:09.783Z,101532.97
2023-01-11T01:51:55.106Z,101530.34
2023-01-11T01:54:30.209Z,101532.03
2023-01-11T01:57:02.675Z,101529.47
2023-01-11T01:59:33.475Z,101530.34
2023-01-11T02:02:01.265Z,101529.47
2023-01-11T02:04:33.263Z,101533.00
2023-01-11T02:07:10.136Z,101530.38
2023-01-11T02:09:53.319Z,101520.06
2023-01-11T02:12:21.491Z,101537.31
2023-01-11T02:14:49.649Z,101511.47
2023-01-11T02:17:16.601Z,101525.16
2023-01-11T02:20:08.737Z,101514.03
2023-01-11T02:22:38.697Z,101515.75
2023-01-11T02:25:38.540Z,101505.34
2023-01-11T02:28:15.005Z,101518.31
2023-01-11T02:30:42.014Z,101512.31
2023-01-11T02:33:17.780Z,101518.34
2023-01-11T02:36:07.563Z,101505.41
2023-01-11T02:38:52.241Z,101497.63
2023-01-11T02:42:10.100Z,101510.63
2023-01-11T02:45:02.140Z,101501.94
2023-01-11T02:47:51.739Z,101495.94
2023-01-11T02:50:56.433Z,101497.63
2023-01-11T02:53:30.737Z,101496.78
2023-01-11T02:56:01.796Z,101506.25
2023-01-11T02:58:33.571Z,101493.34
2023-01-11T03:01:01.170Z,101486.44
2023-01-11T03:03:28.424Z,101495.88
2023-01-11T03:06:00.589Z,101512.22
2023-01-11T03:08:38.059Z,101493.25
2023-01-11T03:11:14.747Z,101501.09
2023-01-11T03:14:04.823Z,101482.97
2023-01-11T03:16:43.438Z,101474.28
2023-01-11T03:19:13.231Z,101478.56
2023-01-11T03:21:50.161Z,101483.81
2023-01-11T03:24:24.860Z,101482.88
2023-01-11T03:27:10.529Z,101480.28
2023-01-11T03:29:37.548Z,101466.63
2023-01-11T03:32:04.826Z,101461.41
2023-01-11T03:34:48.386Z,101465.75
2023-01-11T03:37:29.589Z,101454.41
2023-01-11T03:40:19.191Z,101456.91
2023-01-11T03:43:09.805Z,101467.25
2023-01-11T03:45:46.819Z,101488.03
2023-01-11T03:48:26.383Z,101467.28
2023-01-11T03:50:56.787Z,101479.44
2023-01-11T03:53:27.025Z,101477.66
2023-01-11T03:55:58.812Z,101487.19
2023-01-11T03:58:28.642Z,101472.59
2023-01-11T04:00:57.105Z,101484.72
2023-01-11T04:03:26.965Z,101470.91
2023-01-11T04:05:59.542Z,101468.38
2023-01-11T04:08:26.887Z,101458.84
2023-01-11T04:10:54.125Z,101455.44
2023-01-11T04:13:21.198Z,101451.91
2023-01-11T04:15:48.195Z,101443.25
2023-01-11T04:18:15.176Z,101445.91
2023-01-11T04:20:42.172Z,101449.41
2023-01-11T04:23:12.408Z,101455.44
2023-01-11T04:25:39.452Z,101459.72
2023-01-11T04:28:06.480Z,101446.75
2023-01-11T04:30:34.056Z,101454.56
2023-01-11T04:33:01.068Z,101446.78
2023-01-11T04:35:28.089Z,101443.31
2023-01-11T04:37:56.137Z,101445.88
2023-01-11T04:40:23.804Z,101434.69
2023-01-11T04:42:50.981Z,101449.31
2023-01-11T04:45:17.981Z,101441.63
2023-01-11T04:47:46.246Z,101444.19
2023-01-11T04:50:13.365Z,101433.84
2023-01-11T04:52:41.895Z,101444.19
2023-01-11T04:55:09.585Z,101438.19
2023-01-11T04:57:36.906Z,101441.53
2023-01-11T05:00:08.954Z,101435.50
2023-01-11T05:02:36.182Z,101453.63
2023-01-11T05:05:04.292Z,101443.28
2023-01-11T05:07:31.578Z,101438.16
2023-01-11T05:09:58.617Z,101429.56
2023-01-11T05:12:25.942Z,101421.72
2023-01-11T05:14:53.048Z,101432.09
2023-01-11T05:17:20.100Z,101419.22
2023-01-11T05:19:47.416Z,101426.06
2023-01-11T05:22:14.569Z,101422.56
2023-01-11T05:24:41.671Z,101413.94
2023-01-11T05:27:09.336Z,101413.09
2023-01-11T05:29:36.450Z,101418.34
2023-01-11T05:32:03.533Z,101430.34
2023-01-11T05:34:31.090Z,101408.78
2023-01-11T05:36:58.116Z,101419.88
2023-01-11T05:39:25.268Z,101422.47
2023-01-11T05:41:52.294Z,101419.03
2023-01-11T05:44:37.808Z,101426.00
2023-01-11T05:47:04.994Z,101427.66
2023-01-11T05:49:32.198Z,101434.53
2023-01-11T05:51:59.237Z,101442.34
2023-01-11T05:54:26.287Z,101430.25
2023-01-11T05:56:53.369Z,101411.28
2023-01-11T05:59:20.523Z,101427.69
2023-01-11T06:01:48.634Z,101412.97
2023-01-11T06:04:15.856Z,101411.13
2023-01-11T06:06:42.914Z,101418.09
2023-01-11T06:09:10.041Z,101420.66
2023-01-11T06:11:37.096Z,101411.13
2023-01-11T06:14:04.191Z,101409.41
2023-01-11T06:16:31.430Z,101414.53
2023-01-11T06:18:58.513Z,101424.09
2023-01-11T06:21:25.739Z,101404.13
2023-01-11T06:23:52.903Z,101420.56
2023-01-11T06:26:22.423Z,101410.16
2023-01-11T06:28:50.594Z,101419.56
2023-01-11T06:31:18.438Z,101404.84
2023-01-11T06:33:46.679Z,101401.38
2023-01-11T06:36:15.215Z,101401.38
2023-01-11T06:38:42.900Z,101401.41
2023-01-11T06:41:11.604Z,101395.25
2023-01-11T06:43:42.072Z,101395.06
2023-01-11T06:46:14.678Z,101402.78
2023-01-11T06:48:42.524Z,101385.59
2023-01-11T06:51:12.696Z,101406.41
2023-01-11T06:53:41.643Z,101392.56
2023-01-11T06:56:12.409Z,101397.75
2023-01-11T06:58:39.832Z,101395.16
2023-01-11T07:01:07.428Z,101394.28
2023-01-11T07:03:34.654Z,101392.50
2023-01-11T07:06:02.566Z,101391.53
2023-01-11T07:08:29.760Z,101389.97
2023-01-11T07:10:56.927Z,101392.22
2023-01-11T07:13:24.081Z,101382.75
2023-01-11T07:15:54.150Z,101403.59
2023-01-11T07:18:22.098Z,101380.09
2023-01-11T07:20:51.371Z,101385.19
2023-01-11T07:23:18.473Z,101385.41
2023-01-11T07:25:45.492Z,101388.75
2023-01-11T07:28:12.527Z,101388.72
2023-01-11T07:31:00.154Z,101400.78
2023-01-11T07:33:27.533Z,101392.91
2023-01-11T07:35:55.118Z,101394.56
2023-01-11T07:38:22.819Z,101394.50
2023-01-11T07:40:49.984Z,101394.47
2023-01-11T07:43:19.546Z,101396.19
2023-01-11T07:45:49.849Z,101402.19
2023-01-11T07:48:25.237Z,101398.78
2023-01-11T07:50:53.302Z,101414.28
2023-01-11T07:53:20.638Z,101397.75
2023-01-11T07:55:47.920Z,101384.94
2023-01-11T07:58:16.003Z,101400.31
2023-01-11T08:00:43.586Z,101375.81
2023-01-11T08:03:10.902Z,101382.75
2023-01-11T08:05:38.105Z,101386.03
2023-01-11T08:08:05.890Z,101373.63
2023-01-11T08:10:33.687Z,101370.91
2023-01-11T08:13:19.253Z,101386.63
2023-01-11T08:15:46.327Z,101373.72
2023-01-11T08:18:13.826Z,101383.38
2023-01-11T08:20:41.005Z,101376.03
2023-01-11T08:23:09.913Z,101388.59
2023-01-11T08:25:37.572Z,101369.06
2023-01-11T08:28:07.061Z,101361.03
2023-01-11T08:30:34.649Z,101349.75
2023-01-11T08:33:02.395Z,101360.03
2023-01-11T08:35:31.041Z,101353.47
2023-01-11T08:37:58.188Z,101353.34
2023-01-11T08:40:25.858Z,101345.53
2023-01-11T08:42:57.061Z,101346.69
2023-01-11T08:45:24.958Z,101340.84
2023-01-11T08:47:52.327Z,101351.09
2023-01-11T08:50:19.963Z,101328.44
2023-01-11T08:52:49.695Z,101339.59
2023-01-11T08:55:16.963Z,101335.44
2023-01-11T08:57:44.033Z,101332.78
2023-01-11T09:04:53.277Z,101320.03
2023-01-11T09:10:27.019Z,101345.84
2023-01-11T09:12:54.549Z,101343.13
2023-01-11T09:15:21.849Z,101333.34
2023-01-11T09:17:49.467Z,101337.38
2023-01-11T09:20:17.137Z,101336.63
2023-01-11T09:22:53.034Z,101346.81
2023-01-11T09:25:20.820Z,101330.84
2023-01-11T09:27:51.304Z,101343.47
2023-01-11T09:30:20.916Z,101337.28
2023-01-11T09:32:48.911Z,101320.66
2023-01-11T09:35:16.957Z,101319.78
2023-01-11T09:37:51.593Z,101306.72
2023-01-11T09:40:23.721Z,101305.97
2023-01-11T09:42:59.999Z,101308.31
2023-01-11T09:45:30.492Z,101298.13
2023-01-11T09:48:13.174Z,101295.31
2023-01-11T09:50:45.839Z,101288.66
2023-01-11T09:53:22.621Z,101285.97
2023-01-11T09:55:52.333Z,101285.75
2023-01-11T09:58:55.925Z,101269.22
2023-01-11T10:01:38.327Z,101275.66
2023-01-11T10:04:33.467Z,101273.13
2023-01-11T10:07:25.179Z,101267.88
2023-01-11T10:18:42.885Z,101260.28
2023-01-11T10:19:37.335Z,101250.31
2023-01-11T10:22:33.623Z,101253.00
2023-01-11T10:25:18.948Z,101263.22
2023-01-11T10:28:00.667Z,101266.88
2023-01-11T10:30:51.960Z,101245.31
2023-01-11T10:33:37.106Z,101240.81
2023-01-11T10:36:29.377Z,101238.94
2023-01-11T10:39:17.705Z,101238.69
2023-01-11T10:42:04.330Z,101232.44
2023-01-11T10:45:00.376Z,101227.19
2023-01-11T10:47:41.979Z,101226.75
2023-01-11T10:50:22.138Z,101229.72
2023-01-11T10:53:07.347Z,101220.97
2023-01-11T10:56:02.453Z,101210.50
2023-01-11T10:58:36.040Z,101208.78
2023-01-11T11:01:36.755Z,101194.38
2023-01-11T11:04:15.905Z,101220.09
2023-01-11T11:06:55.719Z,101205.28
2023-01-11T11:10:02.215Z,101205.66
2023-01-11T11:12:34.827Z,101210.97
2023-01-11T11:15:23.478Z,101197.84
2023-01-11T11:17:51.988Z,101201.28
2023-01-11T11:20:22.229Z,101197.00
2023-01-11T11:22:51.370Z,101193.13
2023-01-11T11:25:24.059Z,101183.47
2023-01-11T11:28:01.270Z,101176.88
2023-01-11T11:30:38.814Z,101174.94
2023-01-11T11:33:21.187Z,101168.69
2023-01-11T11:35:59.168Z,101165.38
2023-01-11T11:38:32.011Z,101163.75
2023-01-11T11:41:12.836Z,101156.06
2023-01-11T11:43:42.252Z,101149.06
2023-01-11T11:46:19.338Z,101145.28
2023-01-11T11:49:16.868Z,101144.19
2023-01-11T11:51:47.130Z,101164.28
2023-01-11T11:54:36.440Z,101148.88
2023-01-11T11:57:21.417Z,101150.09
2023-01-11T11:59:53.827Z,101141.25
2023-01-11T12:02:33.276Z,101144.75
2023-01-11T12:05:07.651Z,101123.13
2023-01-11T12:07:54.199Z,101128.25
2023-01-11T12:10:26.601Z,101133.34
2023-01-11T12:12:57.715Z,101132.38
2023-01-11T12:15:30.254Z,101135.47
2023-01-11T12:18:26.763Z,101142.88
2023-01-11T12:20:54.815Z,101122.81
2023-01-11T12:23:24.444Z,101131.75
2023-01-11T12:25:54.219Z,101136.47
2023-01-11T12:28:28.460Z,101138.34
2023-01-11T12:31:12.854Z,101125.25
2023-01-11T12:34:07.084Z,101128.47
2023-01-11T12:36:37.112Z,101122.78
2023-01-11T12:39:38.805Z,101131.47
2023-01-11T12:42:41.735Z,101125.66
2023-01-11T12:45:33.502Z,101121.31
2023-01-11T12:48:29.629Z,101125.72
2023-01-11T12:51:12.738Z,101127.03
2023-01-11T12:54:00.509Z,101111.63
2023-01-11T12:56:39.756Z,101116.13
2023-01-11T12:59:15.359Z,101110.50
2023-01-11T13:02:19.145Z,101105.91
2023-01-11T13:05:06.501Z,101110.06
2023-01-11T13:07:40.341Z,101111.09
2023-01-11T13:10:41.642Z,101124.75
2023-01-11T13:13:47.022Z,101120.22
2023-01-11T13:16:23.766Z,101128.13
2023-01-11T13:18:59.258Z,101116.25
2023-01-11T13:21:53.004Z,101127.34
2023-01-11T13:24:40.263Z,101111.88
2023-01-11T13:27:15.158Z,101108.38
2023-01-11T13:29:46.144Z,101108.16
2023-01-11T13:32:18.491Z,101102.66
2023-01-11T13:34:52.076Z,101105.53
2023-01-11T13:37:40.504Z,101105.69
2023-01-11T13:40:24.298Z,101103.06
2023-01-11T13:42:59.441Z,101101.09
2023-01-11T13:45:42.835Z,101112.91
2023-01-11T13:48:18.877Z,101124.88
2023-01-11T13:50:59.443Z,101111.56
2023-01-11T13:54:10.056Z,101106.34
2023-01-11T13:56:43.442Z,101100.22
2023-01-11T13:59:27.723Z,101102.63
2023-01-11T14:02:24.808Z,101103.88
2023-01-11T14:05:14.034Z,101107.50
2023-01-11T14:08:16.857Z,101108.19
2023-01-11T14:11:01.002Z,101103.47
2023-01-11T14:13:49.594Z,101108.81
2023-01-11T14:16:59.817Z,101105.69
2023-01-11T14:19:43.257Z,101095.34
2023-01-11T14:22:49.001Z,101088.63
2023-01-11T14:25:24.509Z,101081.97
2023-01-11T14:28:00.969Z,101085.47
2023-01-11T14:30:57.291Z,101076.25
2023-01-11T14:33:57.953Z,101071.81
2023-01-11T14:36:46.220Z,101072.72
2023-01-11T14:39:46.162Z,101076.91
2023-01-11T14:42:35.244Z,101085.81
2023-01-11T14:45:33.422Z,101090.63
2023-01-11T14:48:19.109Z,101076.84
2023-01-11T14:51:32.666Z,101085.28
2023-01-11T14:54:16.523Z,101083.38
2023-01-11T14:56:43.634Z,101085.69
2023-01-11T14:59:29.195Z,101085.16
2023-01-11T15:02:05.636Z,101094.75
2023-01-11T15:04:55.740Z,101084.50
2023-01-11T15:07:28.969Z,101086.47
2023-01-11T15:10:00.812Z,101085.63
2023-01-11T15:12:41.285Z,101093.78
2023-01-11T15:15:19.380Z,101093.69
2023-01-11T15:18:15.114Z,101091.72
2023-01-11T15:20:54.077Z,101094.00
2023-01-11T15:23:21.580Z,101071.94
2023-01-11T15:25:59.495Z,101077.81
2023-01-11T15:28:54.794Z,101069.34
2023-01-11T15:32:03.216Z,101072.81
2023-01-11T15:34:40.107Z,101080.88
2023-01-11T15:37:51.359Z,101061.78
2023-01-11T15:40:20.447Z,101074.97
2023-01-11T15:43:12.009Z,101079.25
2023-01-11T15:46:16.963Z,101085.06
2023-01-11T15:48:52.889Z,101086.25
2023-01-11T15:51:35.439Z,101084.44
2023-01-11T15:54:18.130Z,101072.25
2023-01-11T15:57:20.911Z,101078.66
2023-01-11T15:59:58.282Z,101068.31
2023-01-11T16:03:00.284Z,101074.97
2023-01-11T16:05:32.452Z,101084.50
2023-01-11T16:08:11.512Z,101071.66
2023-01-11T16:11:03.361Z,101079.97
2023-01-11T16:13:53.831Z,101084.19
2023-01-11T16:16:29.409Z,101085.72
2023-01-11T16:19:07.123Z,101076.44
2023-01-11T16:21:42.441Z,101069.56
2023-01-11T16:24:15.877Z,101060.91
2023-01-11T16:26:44.074Z,101052.47
2023-01-11T16:29:15.698Z,101051.63
2023-01-11T16:31:59.500Z,101044.78
2023-01-11T16:34:29.106Z,101019.78
2023-01-11T16:36:57.796Z,101012.25
2023-01-11T16:39:28.597Z,101014.13
2023-01-11T16:42:00.766Z,101020.81
2023-01-11T16:44:30.733Z,101015.50
2023-01-11T16:47:10.064Z,101014.19
2023-01-11T16:49:38.915Z,101011.38
2023-01-11T16:52:27.422Z,101017.78
2023-01-11T16:55:00.109Z,101020.59
2023-01-11T16:57:40.973Z,101014.06
2023-01-11T17:00:25.107Z,101024.31
2023-01-11T17:03:06.641Z,101021.13
2023-01-11T17:05:34.128Z,101015.56
2023-01-11T17:08:37.340Z,101009.47
2023-01-11T17:11:17.109Z,101010.31
2023-01-11T17:13:55.043Z,101021.34
2023-01-11T17:16:28.111Z,101014.41
2023-01-11T17:18:56.184Z,101014.22
2023-01-11T17:21:58.615Z,101015.53
2023-01-11T17:24:47.245Z,101004.03
2023-01-11T17:27:35.772Z,100997.69
2023-01-11T17:30:05.508Z,100983.63
2023-01-11T17:32:41.373Z,100992.78
2023-01-11T17:35:37.318Z,100986.66
2023-01-11T17:38:09.018Z,100984.13
2023-01-11T17:40:39.192Z,100987.13
2023-01-11T17:43:35.645Z,100984.13
2023-01-11T17:46:04.908Z,100982.34
2023-01-11T17:48:32.747Z,100969.97
2023-01-11T17:51:01.651Z,100967.72
2023-01-11T17:53:34.622Z,100973.66
2023-01-11T17:56:05.978Z,100968.16
2023-01-11T17:58:37.882Z,100980.63
2023-01-11T18:01:05.174Z,100965.09
2023-01-11T18:03:43.332Z,100968.28
2023-01-11T18:06:26.040Z,100957.59
2023-01-11T18:08:55.942Z,100958.50
2023-01-11T18:11:26.175Z,100953.47
2023-01-11T18:13:55.879Z,100962.16
2023-01-11T18:16:23.298Z,100963.31
2023-01-11T18:18:52.327Z,100965.50
2023-01-11T18:21:25.359Z,100949.63
2023-01-11T18:24:14.511Z,100953.31
2023-01-11T18:26:48.113Z,100952.91
2023-01-11T18:29:46.083Z,100956.50
2023-01-11T18:32:15.397Z,100963.06
2023-01-11T18:34:47.086Z,100951.03
2023-01-11T18:37:14.807Z,100950.63
2023-01-11T18:39:42.905Z,100959.03
2023-01-11T18:42:16.486Z,100962.69
2023-01-11T18:44:46.751Z,100964.91
2023-01-11T18:47:21.385Z,100970.63
2023-01-11T18:49:49.956Z,100967.00
2023-01-11T18:52:19.720Z,100973.31
2023-01-11T18:54:47.529Z,100982.19
2023-01-11T18:57:14.913Z,100966.25
2023-01-11T18:59:42.574Z,100971.53
2023-01-11T19:04:51.643Z,100984.31
2023-01-11T19:07:18.724Z,100994.31
2023-01-11T19:09:45.836Z,101002.81
2023-01-11T19:12:14.048Z,100989.16
2023-01-11T19:14:42.028Z,100994.56
2023-01-11T19:17:10.452Z,100995.56
2023-01-11T19:19:37.609Z,100994.06
2023-01-11T19:22:05.644Z,100987.41
2023-01-11T19:24:33.321Z,100992.53
2023-01-11T19:27:00.557Z,100979.34
2023-01-11T19:29:27.785Z,100979.75
2023-01-11T19:31:57.836Z,100994.91
2023-01-11T19:34:27.777Z,100987.06
2023-01-11T19:36:54.921Z,100990.19
2023-01-11T19:39:22.027Z,100994.88
2023-01-11T19:42:00.203Z,100983.97
2023-01-11T19:44:31.407Z,100981.09
2023-01-11T19:47:10.278Z,100971.25
2023-01-11T19:49:39.689Z,100980.94
2023-01-11T19:52:12.919Z,100980.34
2023-01-11T19:54:44.371Z,100965.03
2023-01-11T19:57:14.364Z,100963.09
2023-01-11T19:59:42.639Z,100956.75
2023-01-11T20:02:12.884Z,100965.84
2023-01-11T20:04:40.850Z,100950.53
2023-01-11T20:07:09.425Z,100947.84
2023-01-11T20:09:40.043Z,100956.66
2023-01-11T20:12:12.882Z,100940.63
2023-01-11T20:14:40.843Z,100941.25
2023-01-11T20:17:08.626Z,100957.91
2023-01-11T20:19:35.853Z,100940.63
2023-01-11T20:22:03.268Z,100953.31
2023-01-11T20:24:31.821Z,100948.47
2023-01-11T20:27:02.959Z,100945.19
2023-01-11T20:29:30.337Z,100943.06
2023-01-11T20:32:10.509Z,100939.53
2023-01-11T20:34:45.106Z,100946.69
2023-01-11T20:37:12.106Z,100956.72
2023-01-11T20:39:39.216Z,100942.31
2023-01-11T20:42:06.251Z,100940.44
2023-01-11T20:44:33.252Z,100948.38
2023-01-11T20:47:00.759Z,100941.91
2023-01-11T20:49:29.429Z,100948.63
2023-01-11T20:51:57.096Z,100945.56
2023-01-11T20:54:24.395Z,100936.44
2023-01-11T20:56:51.860Z,100942.72
2023-01-11T20:59:20.490Z,100940.84
2023-01-11T21:01:49.285Z,100937.69
2023-01-11T21:04:17.862Z,100931.31
2023-01-11T21:06:48.206Z,100932.56
2023-01-11T21:09:20.609Z,100926.78
2023-01-11T21:11:54.148Z,100929.34
2023-01-11T21:14:22.519Z,100930.28
2023-01-11T21:16:49.898Z,100924.91
2023-01-11T21:19:17.455Z,100903.25
2023-01-11T21:21:49.603Z,100925.53
2023-01-11T21:24:17.180Z,100911.50
2023-01-11T21:26:45.829Z,100913.81
2023-01-11T21:29:13.525Z,100912.78
2023-01-11T21:31:41.464Z,100908.22
2023-01-11T21:34:11.401Z,100923.28
2023-01-11T21:36:38.781Z,100924.00
2023-01-11T21:39:06.069Z,100912.19
2023-01-11T21:41:52.713Z,100916.09
2023-01-11T21:44:21.186Z,100909.72
2023-01-11T21:46:48.976Z,100911.81
2023-01-11T21:49:17.103Z,100916.09
2023-01-11T21:51:44.202Z,100918.47
2023-01-11T21:54:13.844Z,100917.53
2023-01-11T21:56:44.191Z,100916.31
2023-01-11T21:59:11.919Z,100919.72
2023-01-11T22:01:40.653Z,100916.06
2023-01-11T22:04:09.590Z,100910.50
2023-01-11T22:06:44.081Z,100921.78
2023-01-11T22:09:12.154Z,100909.25
2023-01-11T22:11:39.820Z,100925.28
2023-01-11T22:14:08.875Z,100916.66
2023-01-11T22:16:36.994Z,100906.75
2023-01-11T22:19:07.467Z,100916.66
2023-01-11T22:21:36.302Z,100921.50
2023-01-11T22:24:04.923Z,100920.09
2023-01-11T22:26:38.677Z,100917.59
2023-01-11T22:29:12.416Z,100912.19
2023-01-11T22:31:42.315Z,100911.50
2023-01-11T22:34:10.685Z,100907.75
2023-01-11T22:36:38.215Z,100906.47
2023-01-11T22:39:05.580Z,100912.81
2023-01-11T22:41:32.635Z,100901.03
2023-01-11T22:43:59.822Z,100900.75
2023-01-11T22:46:27.838Z,100906.50
2023-01-11T22:48:55.313Z,100904.78
2023-01-11T22:51:25.068Z,100900.78
2023-01-11T22:53:53.518Z,100897.66
2023-01-11T22:56:25.041Z,100894.91
2023-01-11T22:58:56.745Z,100895.50
2023-01-11T23:01:26.109Z,100881.59
2023-01-11T23:03:54.664Z,100877.22
2023-01-11T23:06:25.261Z,100875.41
2023-01-11T23:08:53.309Z,100881.22
2023-01-11T23:11:41.887Z,100871.56
2023-01-11T23:14:12.608Z,100871.63
2023-01-11T23:16:40.648Z,100872.97
2023-01-11T23:19:08.893Z,100868.88
2023-01-11T23:21:39.216Z,100866.38
2023-01-11T23:24:06.729Z,100862.47
2023-01-11T23:26:33.980Z,100853.31
2023-01-11T23:29:00.976Z,100844.44
2023-01-11T23:31:29.558Z,100851.53
2023-01-11T23:34:01.171Z,100853.97
2023-01-11T23:36:31.648Z,100859.47
2023-01-11T23:38:59.335Z,100860.28
2023-01-11T23:41:45.550Z,100865.47
2023-01-11T23:44:14.662Z,100849.94
2023-01-11T23:47:00.790Z,100854.28
2023-01-11T23:49:29.154Z,100848.47
2023-01-11T23:51:56.974Z,100850.44
2023-01-11T23:54:28.023Z,100845.56
2023-01-11T23:56:55.859Z,100848.72
2023-01-11T23:59:23.845Z,100847.66
